sensor_id;sensor_type;location;lat;lon;timestamp;P1;durP1;ratioP1;P2;durP2;ratioP2
24663;SDS011;12791;50.992;13.788;2023-05-15T00:00:06;2.30;;;2.20;;
24663;SDS011;12791;50.992;13.788;2023-05-15T00:02:34;2.20;;;2.10;;
24663;SDS011;12791;50.992;13.788;2023-05-15T00:05:01;2.00;;;1.90;;
24663;SDS011;12791;50.992;13.788;2023-05-15T00:07:29;2.00;;;1.90;;
24663;SDS011;12791;50.992;13.788;2023-05-15T00:09:57;2.30;;;2.20;;
24663;SDS011;12791;50.992;13.788;2023-05-15T00:12:23;2.00;;;1.80;;
24663;SDS011;12791;50.992;13.788;2023-05-15T00:14:50;2.08;;;1.98;;
24663;SDS011;12791;50.992;13.788;2023-05-15T00:17:17;2.40;;;2.30;;
24663;SDS011;12791;50.992;13.788;2023-05-15T00:19:44;2.22;;;2.13;;
24663;SDS011;12791;50.992;13.788;2023-05-15T00:22:10;2.28;;;1.98;;
24663;SDS011;12791;50.992;13.788;2023-05-15T00:24:37;2.17;;;1.95;;
24663;SDS011;12791;50.992;13.788;2023-05-15T00:27:05;2.70;;;2.55;;
24663;SDS011;12791;50.992;13.788;2023-05-15T00:29:31;2.13;;;2.03;;
24663;SDS011;12791;50.992;13.788;2023-05-15T00:31:58;2.20;;;2.10;;
24663;SDS011;12791;50.992;13.788;2023-05-15T00:34:25;2.70;;;2.60;;
24663;SDS011;12791;50.992;13.788;2023-05-15T00:36:51;2.25;;;2.05;;
24663;SDS011;12791;50.992;13.788;2023-05-15T00:39:18;2.40;;;2.20;;
24663;SDS011;12791;50.992;13.788;2023-05-15T00:41:44;2.60;;;2.40;;
24663;SDS011;12791;50.992;13.788;2023-05-15T00:44:13;3.22;;;2.90;;
24663;SDS011;12791;50.992;13.788;2023-05-15T00:46:43;2.80;;;2.10;;
24663;SDS011;12791;50.992;13.788;2023-05-15T00:49:11;2.17;;;2.05;;
24663;SDS011;12791;50.992;13.788;2023-05-15T00:51:39;2.08;;;1.98;;
24663;SDS011;12791;50.992;13.788;2023-05-15T00:54:06;3.22;;;2.60;;
24663;SDS011;12791;50.992;13.788;2023-05-15T00:56:33;2.55;;;2.40;;
24663;SDS011;12791;50.992;13.788;2023-05-15T00:59:00;2.20;;;2.10;;
24663;SDS011;12791;50.992;13.788;2023-05-15T01:01:29;2.60;;;2.40;;
24663;SDS011;12791;50.992;13.788;2023-05-15T01:03:58;2.88;;;2.67;;
24663;SDS011;12791;50.992;13.788;2023-05-15T01:06:25;3.05;;;2.67;;
24663;SDS011;12791;50.992;13.788;2023-05-15T01:08:53;2.72;;;2.63;;
24663;SDS011;12791;50.992;13.788;2023-05-15T01:11:23;2.30;;;2.20;;
24663;SDS011;12791;50.992;13.788;2023-05-15T01:13:59;2.75;;;2.55;;
24663;SDS011;12791;50.992;13.788;2023-05-15T01:16:28;3.00;;;2.50;;
24663;SDS011;12791;50.992;13.788;2023-05-15T01:18:56;2.97;;;2.78;;
24663;SDS011;12791;50.992;13.788;2023-05-15T01:24:27;3.40;;;2.85;;
24663;SDS011;12791;50.992;13.788;2023-05-15T01:27:17;3.40;;;3.13;;
24663;SDS011;12791;50.992;13.788;2023-05-15T01:29:48;2.90;;;2.67;;
24663;SDS011;12791;50.992;13.788;2023-05-15T01:32:22;2.90;;;2.70;;
24663;SDS011;12791;50.992;13.788;2023-05-15T01:34:56;3.25;;;2.95;;
24663;SDS011;12791;50.992;13.788;2023-05-15T01:37:28;3.00;;;2.80;;
24663;SDS011;12791;50.992;13.788;2023-05-15T01:39:59;3.30;;;3.08;;
24663;SDS011;12791;50.992;13.788;2023-05-15T01:42:29;3.35;;;3.05;;
24663;SDS011;12791;50.992;13.788;2023-05-15T01:45:00;3.28;;;3.05;;
24663;SDS011;12791;50.992;13.788;2023-05-15T01:47:30;3.75;;;3.45;;
24663;SDS011;12791;50.992;13.788;2023-05-15T01:50:01;4.32;;;3.33;;
24663;SDS011;12791;50.992;13.788;2023-05-15T01:52:29;4.10;;;3.60;;
24663;SDS011;12791;50.992;13.788;2023-05-15T01:54:59;6.18;;;3.55;;
24663;SDS011;12791;50.992;13.788;2023-05-15T01:57:27;4.32;;;3.97;;
24663;SDS011;12791;50.992;13.788;2023-05-15T01:59:56;3.33;;;3.13;;
24663;SDS011;12791;50.992;13.788;2023-05-15T02:02:24;3.92;;;3.35;;
24663;SDS011;12791;50.992;13.788;2023-05-15T02:04:52;4.15;;;3.80;;
24663;SDS011;12791;50.992;13.788;2023-05-15T02:07:19;6.20;;;3.90;;
24663;SDS011;12791;50.992;13.788;2023-05-15T02:09:46;3.90;;;3.60;;
24663;SDS011;12791;50.992;13.788;2023-05-15T02:12:13;4.07;;;3.72;;
24663;SDS011;12791;50.992;13.788;2023-05-15T02:14:40;4.35;;;4.05;;
24663;SDS011;12791;50.992;13.788;2023-05-15T02:17:10;4.50;;;4.10;;
24663;SDS011;12791;50.992;13.788;2023-05-15T02:19:36;4.10;;;3.67;;
24663;SDS011;12791;50.992;13.788;2023-05-15T02:22:03;3.40;;;3.20;;
24663;SDS011;12791;50.992;13.788;2023-05-15T02:24:30;2.63;;;2.42;;
24663;SDS011;12791;50.992;13.788;2023-05-15T02:26:59;3.20;;;3.00;;
24663;SDS011;12791;50.992;13.788;2023-05-15T02:29:30;2.80;;;2.65;;
24663;SDS011;12791;50.992;13.788;2023-05-15T02:32:03;3.00;;;2.80;;
24663;SDS011;12791;50.992;13.788;2023-05-15T02:34:38;2.80;;;2.67;;
24663;SDS011;12791;50.992;13.788;2023-05-15T02:37:13;3.20;;;3.00;;
24663;SDS011;12791;50.992;13.788;2023-05-15T02:39:43;3.58;;;3.28;;
24663;SDS011;12791;50.992;13.788;2023-05-15T02:42:11;3.33;;;3.13;;
24663;SDS011;12791;50.992;13.788;2023-05-15T02:44:39;3.45;;;2.72;;
24663;SDS011;12791;50.992;13.788;2023-05-15T02:47:07;2.90;;;2.70;;
24663;SDS011;12791;50.992;13.788;2023-05-15T02:49:37;3.20;;;3.00;;
24663;SDS011;12791;50.992;13.788;2023-05-15T02:52:04;3.70;;;2.67;;
24663;SDS011;12791;50.992;13.788;2023-05-15T02:54:31;3.28;;;3.08;;
24663;SDS011;12791;50.992;13.788;2023-05-15T02:56:58;3.83;;;2.72;;
24663;SDS011;12791;50.992;13.788;2023-05-15T02:59:24;3.80;;;3.50;;
24663;SDS011;12791;50.992;13.788;2023-05-15T03:01:51;4.38;;;3.13;;
24663;SDS011;12791;50.992;13.788;2023-05-15T03:04:19;3.35;;;2.88;;
24663;SDS011;12791;50.992;13.788;2023-05-15T03:06:47;3.13;;;2.92;;
24663;SDS011;12791;50.992;13.788;2023-05-15T03:09:14;2.50;;;2.40;;
24663;SDS011;12791;50.992;13.788;2023-05-15T03:11:41;3.25;;;3.05;;
24663;SDS011;12791;50.992;13.788;2023-05-15T03:14:08;4.00;;;3.70;;
24663;SDS011;12791;50.992;13.788;2023-05-15T03:16:35;3.60;;;3.40;;
24663;SDS011;12791;50.992;13.788;2023-05-15T03:19:02;3.33;;;3.00;;
24663;SDS011;12791;50.992;13.788;2023-05-15T03:21:29;4.28;;;3.97;;
24663;SDS011;12791;50.992;13.788;2023-05-15T03:23:57;4.40;;;4.03;;
24663;SDS011;12791;50.992;13.788;2023-05-15T03:26:24;3.70;;;3.42;;
24663;SDS011;12791;50.992;13.788;2023-05-15T03:28:50;3.63;;;3.30;;
24663;SDS011;12791;50.992;13.788;2023-05-15T03:31:17;3.90;;;3.67;;
24663;SDS011;12791;50.992;13.788;2023-05-15T03:33:45;3.33;;;3.08;;
24663;SDS011;12791;50.992;13.788;2023-05-15T03:36:13;4.10;;;3.60;;
24663;SDS011;12791;50.992;13.788;2023-05-15T03:38:40;3.72;;;3.40;;
24663;SDS011;12791;50.992;13.788;2023-05-15T03:41:09;4.18;;;3.88;;
24663;SDS011;12791;50.992;13.788;2023-05-15T03:43:36;3.90;;;3.60;;
24663;SDS011;12791;50.992;13.788;2023-05-15T03:46:02;3.97;;;3.67;;
24663;SDS011;12791;50.992;13.788;2023-05-15T03:48:29;4.10;;;3.80;;
24663;SDS011;12791;50.992;13.788;2023-05-15T03:50:56;3.35;;;3.15;;
24663;SDS011;12791;50.992;13.788;2023-05-15T03:53:23;3.72;;;3.53;;
24663;SDS011;12791;50.992;13.788;2023-05-15T03:55:49;3.60;;;3.30;;
24663;SDS011;12791;50.992;13.788;2023-05-15T03:58:17;3.42;;;3.22;;
24663;SDS011;12791;50.992;13.788;2023-05-15T04:00:44;3.67;;;3.47;;
24663;SDS011;12791;50.992;13.788;2023-05-15T04:03:11;3.63;;;3.42;;
24663;SDS011;12791;50.992;13.788;2023-05-15T04:05:37;3.55;;;3.28;;
24663;SDS011;12791;50.992;13.788;2023-05-15T04:08:04;3.58;;;3.28;;
24663;SDS011;12791;50.992;13.788;2023-05-15T04:10:33;3.70;;;3.40;;
24663;SDS011;12791;50.992;13.788;2023-05-15T04:13:00;3.75;;;3.50;;
24663;SDS011;12791;50.992;13.788;2023-05-15T04:15:28;4.85;;;3.30;;
24663;SDS011;12791;50.992;13.788;2023-05-15T04:17:55;4.03;;;3.13;;
24663;SDS011;12791;50.992;13.788;2023-05-15T04:20:22;3.05;;;2.85;;
24663;SDS011;12791;50.992;13.788;2023-05-15T04:22:50;3.92;;;3.63;;
24663;SDS011;12791;50.992;13.788;2023-05-15T04:25:17;4.28;;;3.90;;
24663;SDS011;12791;50.992;13.788;2023-05-15T04:27:44;3.35;;;3.15;;
24663;SDS011;12791;50.992;13.788;2023-05-15T04:30:11;8.55;;;7.65;;
24663;SDS011;12791;50.992;13.788;2023-05-15T04:32:39;5.70;;;4.90;;
24663;SDS011;12791;50.992;13.788;2023-05-15T04:35:06;5.63;;;4.63;;
24663;SDS011;12791;50.992;13.788;2023-05-15T04:37:36;4.30;;;4.00;;
24663;SDS011;12791;50.992;13.788;2023-05-15T04:40:03;4.43;;;4.03;;
24663;SDS011;12791;50.992;13.788;2023-05-15T04:42:32;4.38;;;4.05;;
24663;SDS011;12791;50.992;13.788;2023-05-15T04:44:58;4.65;;;4.30;;
24663;SDS011;12791;50.992;13.788;2023-05-15T04:47:26;4.88;;;4.45;;
24663;SDS011;12791;50.992;13.788;2023-05-15T04:49:54;4.65;;;4.10;;
24663;SDS011;12791;50.992;13.788;2023-05-15T04:52:21;4.43;;;4.05;;
24663;SDS011;12791;50.992;13.788;2023-05-15T04:54:47;3.70;;;3.40;;
24663;SDS011;12791;50.992;13.788;2023-05-15T04:57:16;3.00;;;2.90;;
24663;SDS011;12791;50.992;13.788;2023-05-15T04:59:43;3.33;;;3.03;;
24663;SDS011;12791;50.992;13.788;2023-05-15T05:02:10;3.17;;;2.90;;
24663;SDS011;12791;50.992;13.788;2023-05-15T05:04:37;2.72;;;2.53;;
24663;SDS011;12791;50.992;13.788;2023-05-15T05:07:05;3.30;;;3.08;;
24663;SDS011;12791;50.992;13.788;2023-05-15T05:09:33;2.40;;;2.30;;
24663;SDS011;12791;50.992;13.788;2023-05-15T05:12:00;2.88;;;2.65;;
24663;SDS011;12791;50.992;13.788;2023-05-15T05:14:26;3.03;;;2.78;;
24663;SDS011;12791;50.992;13.788;2023-05-15T05:16:53;3.10;;;2.80;;
24663;SDS011;12791;50.992;13.788;2023-05-15T05:19:20;2.78;;;2.58;;
24663;SDS011;12791;50.992;13.788;2023-05-15T05:21:46;2.90;;;2.70;;
24663;SDS011;12791;50.992;13.788;2023-05-15T05:24:14;2.88;;;2.67;;
24663;SDS011;12791;50.992;13.788;2023-05-15T05:26:42;3.08;;;2.88;;
24663;SDS011;12791;50.992;13.788;2023-05-15T05:29:09;2.97;;;2.72;;
24663;SDS011;12791;50.992;13.788;2023-05-15T05:31:35;4.72;;;2.78;;
24663;SDS011;12791;50.992;13.788;2023-05-15T05:34:02;2.75;;;2.58;;
24663;SDS011;12791;50.992;13.788;2023-05-15T05:36:28;3.20;;;3.00;;
24663;SDS011;12791;50.992;13.788;2023-05-15T05:38:55;3.28;;;3.08;;
24663;SDS011;12791;50.992;13.788;2023-05-15T05:41:23;3.35;;;2.72;;
24663;SDS011;12791;50.992;13.788;2023-05-15T05:43:50;2.83;;;2.63;;
24663;SDS011;12791;50.992;13.788;2023-05-15T05:46:16;3.83;;;2.85;;
24663;SDS011;12791;50.992;13.788;2023-05-15T05:48:43;2.85;;;2.50;;
24663;SDS011;12791;50.992;13.788;2023-05-15T05:51:09;3.30;;;3.00;;
24663;SDS011;12791;50.992;13.788;2023-05-15T05:53:36;2.85;;;2.65;;
24663;SDS011;12791;50.992;13.788;2023-05-15T05:56:03;4.30;;;3.38;;
24663;SDS011;12791;50.992;13.788;2023-05-15T05:58:31;3.38;;;3.03;;
24663;SDS011;12791;50.992;13.788;2023-05-15T06:00:57;3.45;;;3.25;;
24663;SDS011;12791;50.992;13.788;2023-05-15T06:03:25;4.05;;;3.67;;
24663;SDS011;12791;50.992;13.788;2023-05-15T06:05:52;3.80;;;3.50;;
24663;SDS011;12791;50.992;13.788;2023-05-15T06:08:18;3.55;;;3.35;;
24663;SDS011;12791;50.992;13.788;2023-05-15T06:10:45;4.03;;;3.72;;
24663;SDS011;12791;50.992;13.788;2023-05-15T06:13:12;3.92;;;3.63;;
24663;SDS011;12791;50.992;13.788;2023-05-15T06:15:40;3.45;;;3.25;;
24663;SDS011;12791;50.992;13.788;2023-05-15T06:18:09;4.57;;;4.18;;
24663;SDS011;12791;50.992;13.788;2023-05-15T06:20:36;3.55;;;3.25;;
24663;SDS011;12791;50.992;13.788;2023-05-15T06:23:03;4.53;;;4.13;;
24663;SDS011;12791;50.992;13.788;2023-05-15T06:25:29;4.82;;;4.07;;
24663;SDS011;12791;50.992;13.788;2023-05-15T06:27:56;4.95;;;4.28;;
24663;SDS011;12791;50.992;13.788;2023-05-15T06:30:23;4.68;;;4.28;;
24663;SDS011;12791;50.992;13.788;2023-05-15T06:32:51;4.05;;;3.85;;
24663;SDS011;12791;50.992;13.788;2023-05-15T06:35:18;4.03;;;3.78;;
24663;SDS011;12791;50.992;13.788;2023-05-15T06:37:44;4.18;;;3.75;;
24663;SDS011;12791;50.992;13.788;2023-05-15T06:40:14;4.78;;;4.22;;
24663;SDS011;12791;50.992;13.788;2023-05-15T06:42:41;5.13;;;4.10;;
24663;SDS011;12791;50.992;13.788;2023-05-15T06:45:08;5.45;;;4.50;;
24663;SDS011;12791;50.992;13.788;2023-05-15T06:47:35;4.57;;;4.18;;
24663;SDS011;12791;50.992;13.788;2023-05-15T06:50:03;5.05;;;4.65;;
24663;SDS011;12791;50.992;13.788;2023-05-15T06:52:30;6.60;;;4.85;;
24663;SDS011;12791;50.992;13.788;2023-05-15T06:54:57;5.10;;;4.60;;
24663;SDS011;12791;50.992;13.788;2023-05-15T06:57:23;5.10;;;4.60;;
24663;SDS011;12791;50.992;13.788;2023-05-15T06:59:50;5.80;;;5.25;;
24663;SDS011;12791;50.992;13.788;2023-05-15T07:02:17;5.47;;;5.03;;
24663;SDS011;12791;50.992;13.788;2023-05-15T07:04:43;6.35;;;5.75;;
24663;SDS011;12791;50.992;13.788;2023-05-15T07:07:11;4.93;;;4.57;;
24663;SDS011;12791;50.992;13.788;2023-05-15T07:09:38;7.00;;;6.40;;
24663;SDS011;12791;50.992;13.788;2023-05-15T07:12:05;6.07;;;5.57;;
24663;SDS011;12791;50.992;13.788;2023-05-15T07:14:32;5.50;;;5.07;;
24663;SDS011;12791;50.992;13.788;2023-05-15T07:16:59;5.70;;;5.30;;
24663;SDS011;12791;50.992;13.788;2023-05-15T07:19:25;5.90;;;5.32;;
24663;SDS011;12791;50.992;13.788;2023-05-15T07:21:52;6.82;;;6.22;;
24663;SDS011;12791;50.992;13.788;2023-05-15T07:24:20;7.15;;;5.65;;
24663;SDS011;12791;50.992;13.788;2023-05-15T07:26:46;5.93;;;5.32;;
24663;SDS011;12791;50.992;13.788;2023-05-15T07:29:13;7.03;;;6.32;;
24663;SDS011;12791;50.992;13.788;2023-05-15T07:31:40;6.22;;;5.68;;
24663;SDS011;12791;50.992;13.788;2023-05-15T07:34:08;6.10;;;5.55;;
24663;SDS011;12791;50.992;13.788;2023-05-15T07:36:36;5.88;;;5.28;;
24663;SDS011;12791;50.992;13.788;2023-05-15T07:39:02;5.88;;;5.28;;
24663;SDS011;12791;50.992;13.788;2023-05-15T07:41:30;5.97;;;5.05;;
24663;SDS011;12791;50.992;13.788;2023-05-15T07:43:57;5.65;;;5.25;;
24663;SDS011;12791;50.992;13.788;2023-05-15T07:46:24;5.53;;;5.05;;
24663;SDS011;12791;50.992;13.788;2023-05-15T07:48:51;5.78;;;5.35;;
24663;SDS011;12791;50.992;13.788;2023-05-15T07:51:17;6.63;;;5.97;;
24663;SDS011;12791;50.992;13.788;2023-05-15T07:53:44;6.57;;;5.97;;
24663;SDS011;12791;50.992;13.788;2023-05-15T07:56:11;6.32;;;5.82;;
24663;SDS011;12791;50.992;13.788;2023-05-15T07:58:39;5.90;;;5.40;;
24663;SDS011;12791;50.992;13.788;2023-05-15T08:01:05;6.07;;;5.57;;
24663;SDS011;12791;50.992;13.788;2023-05-15T08:03:32;9.07;;;6.75;;
24663;SDS011;12791;50.992;13.788;2023-05-15T08:05:59;7.20;;;6.07;;
24663;SDS011;12791;50.992;13.788;2023-05-15T08:08:25;6.28;;;5.80;;
24663;SDS011;12791;50.992;13.788;2023-05-15T08:10:52;6.45;;;5.75;;
24663;SDS011;12791;50.992;13.788;2023-05-15T08:13:19;6.18;;;5.63;;
24663;SDS011;12791;50.992;13.788;2023-05-15T08:15:46;7.60;;;7.00;;
24663;SDS011;12791;50.992;13.788;2023-05-15T08:18:13;7.47;;;6.85;;
24663;SDS011;12791;50.992;13.788;2023-05-15T08:20:40;6.80;;;6.18;;
24663;SDS011;12791;50.992;13.788;2023-05-15T08:23:06;7.00;;;6.35;;
24663;SDS011;12791;50.992;13.788;2023-05-15T08:25:33;7.43;;;6.72;;
24663;SDS011;12791;50.992;13.788;2023-05-15T08:28:00;7.07;;;6.40;;
24663;SDS011;12791;50.992;13.788;2023-05-15T08:30:27;7.63;;;6.90;;
24663;SDS011;12791;50.992;13.788;2023-05-15T08:32:54;5.78;;;5.35;;
24663;SDS011;12791;50.992;13.788;2023-05-15T08:35:21;6.85;;;6.35;;
24663;SDS011;12791;50.992;13.788;2023-05-15T08:37:48;8.63;;;7.80;;
24663;SDS011;12791;50.992;13.788;2023-05-15T08:40:14;6.97;;;6.38;;
24663;SDS011;12791;50.992;13.788;2023-05-15T08:42:42;8.93;;;8.23;;
24663;SDS011;12791;50.992;13.788;2023-05-15T08:45:11;9.00;;;8.18;;
24663;SDS011;12791;50.992;13.788;2023-05-15T08:47:39;9.23;;;8.35;;
24663;SDS011;12791;50.992;13.788;2023-05-15T08:50:08;8.00;;;7.30;;
24663;SDS011;12791;50.992;13.788;2023-05-15T08:52:39;8.07;;;7.33;;
24663;SDS011;12791;50.992;13.788;2023-05-15T08:55:07;8.38;;;7.68;;
24663;SDS011;12791;50.992;13.788;2023-05-15T08:57:35;7.18;;;6.57;;
24663;SDS011;12791;50.992;13.788;2023-05-15T09:00:03;8.10;;;7.30;;
24663;SDS011;12791;50.992;13.788;2023-05-15T09:02:32;7.55;;;6.85;;
24663;SDS011;12791;50.992;13.788;2023-05-15T09:04:59;7.05;;;6.45;;
24663;SDS011;12791;50.992;13.788;2023-05-15T09:07:28;7.30;;;6.70;;
24663;SDS011;12791;50.992;13.788;2023-05-15T09:09:56;7.20;;;6.47;;
24663;SDS011;12791;50.992;13.788;2023-05-15T09:12:23;7.38;;;6.60;;
24663;SDS011;12791;50.992;13.788;2023-05-15T09:14:50;8.43;;;7.63;;
24663;SDS011;12791;50.992;13.788;2023-05-15T09:17:17;8.80;;;7.65;;
24663;SDS011;12791;50.992;13.788;2023-05-15T09:19:44;8.10;;;7.40;;
24663;SDS011;12791;50.992;13.788;2023-05-15T09:22:14;8.13;;;7.43;;
24663;SDS011;12791;50.992;13.788;2023-05-15T09:24:43;8.13;;;7.43;;
24663;SDS011;12791;50.992;13.788;2023-05-15T09:27:12;7.88;;;7.13;;
24663;SDS011;12791;50.992;13.788;2023-05-15T09:29:38;8.45;;;7.65;;
24663;SDS011;12791;50.992;13.788;2023-05-15T09:32:06;10.13;;;9.13;;
24663;SDS011;12791;50.992;13.788;2023-05-15T09:34:35;9.43;;;8.63;;
24663;SDS011;12791;50.992;13.788;2023-05-15T09:37:04;8.27;;;7.65;;
24663;SDS011;12791;50.992;13.788;2023-05-15T09:39:32;7.80;;;7.13;;
24663;SDS011;12791;50.992;13.788;2023-05-15T09:42:07;9.88;;;8.88;;
24663;SDS011;12791;50.992;13.788;2023-05-15T09:44:35;8.70;;;8.00;;
24663;SDS011;12791;50.992;13.788;2023-05-15T09:47:06;8.55;;;7.72;;
24663;SDS011;12791;50.992;13.788;2023-05-15T09:49:34;9.55;;;8.68;;
24663;SDS011;12791;50.992;13.788;2023-05-15T09:52:01;10.38;;;9.48;;
24663;SDS011;12791;50.992;13.788;2023-05-15T09:54:29;10.13;;;9.13;;
24663;SDS011;12791;50.992;13.788;2023-05-15T09:56:57;10.38;;;9.52;;
24663;SDS011;12791;50.992;13.788;2023-05-15T09:59:34;9.57;;;8.73;;
24663;SDS011;12791;50.992;13.788;2023-05-15T10:02:00;10.55;;;9.45;;
24663;SDS011;12791;50.992;13.788;2023-05-15T10:04:33;8.55;;;7.82;;
24663;SDS011;12791;50.992;13.788;2023-05-15T10:09:28;9.30;;;8.43;;
24663;SDS011;12791;50.992;13.788;2023-05-15T10:11:56;9.38;;;8.68;;
24663;SDS011;12791;50.992;13.788;2023-05-15T10:14:25;8.52;;;7.78;;
24663;SDS011;12791;50.992;13.788;2023-05-15T10:16:52;9.15;;;8.40;;
24663;SDS011;12791;50.992;13.788;2023-05-15T10:19:21;9.40;;;8.50;;
24663;SDS011;12791;50.992;13.788;2023-05-15T10:21:50;10.38;;;9.30;;
24663;SDS011;12791;50.992;13.788;2023-05-15T10:24:19;8.85;;;7.90;;
24663;SDS011;12791;50.992;13.788;2023-05-15T10:26:47;8.65;;;7.95;;
24663;SDS011;12791;50.992;13.788;2023-05-15T10:29:16;8.07;;;7.35;;
24663;SDS011;12791;50.992;13.788;2023-05-15T10:31:46;7.65;;;6.85;;
24663;SDS011;12791;50.992;13.788;2023-05-15T10:34:14;8.15;;;7.43;;
24663;SDS011;12791;50.992;13.788;2023-05-15T10:36:42;6.85;;;6.25;;
24663;SDS011;12791;50.992;13.788;2023-05-15T10:39:09;7.43;;;6.75;;
24663;SDS011;12791;50.992;13.788;2023-05-15T10:41:37;6.97;;;6.30;;
24663;SDS011;12791;50.992;13.788;2023-05-15T10:44:04;8.70;;;7.82;;
24663;SDS011;12791;50.992;13.788;2023-05-15T10:46:32;7.07;;;6.47;;
24663;SDS011;12791;50.992;13.788;2023-05-15T10:49:01;7.57;;;6.88;;
24663;SDS011;12791;50.992;13.788;2023-05-15T10:51:29;7.40;;;6.70;;
24663;SDS011;12791;50.992;13.788;2023-05-15T10:54:00;7.50;;;6.80;;
24663;SDS011;12791;50.992;13.788;2023-05-15T10:56:28;7.22;;;6.53;;
24663;SDS011;12791;50.992;13.788;2023-05-15T10:58:55;7.47;;;6.55;;
24663;SDS011;12791;50.992;13.788;2023-05-15T11:01:26;7.00;;;6.32;;
24663;SDS011;12791;50.992;13.788;2023-05-15T11:04:08;7.05;;;6.55;;
24663;SDS011;12791;50.992;13.788;2023-05-15T11:06:36;7.97;;;7.30;;
24663;SDS011;12791;50.992;13.788;2023-05-15T11:12:00;8.27;;;7.43;;
24663;SDS011;12791;50.992;13.788;2023-05-15T11:14:28;6.35;;;5.85;;
24663;SDS011;12791;50.992;13.788;2023-05-15T11:16:55;5.78;;;5.40;;
24663;SDS011;12791;50.992;13.788;2023-05-15T11:19:31;5.28;;;4.88;;
24663;SDS011;12791;50.992;13.788;2023-05-15T11:22:17;7.28;;;6.60;;
24663;SDS011;12791;50.992;13.788;2023-05-15T11:24:51;6.15;;;5.75;;
24663;SDS011;12791;50.992;13.788;2023-05-15T11:27:20;6.82;;;6.32;;
24663;SDS011;12791;50.992;13.788;2023-05-15T11:30:11;7.22;;;6.53;;
24663;SDS011;12791;50.992;13.788;2023-05-15T11:32:43;6.43;;;5.90;;
24663;SDS011;12791;50.992;13.788;2023-05-15T11:35:18;10.48;;;6.15;;
24663;SDS011;12791;50.992;13.788;2023-05-15T11:37:47;6.90;;;6.40;;
24663;SDS011;12791;50.992;13.788;2023-05-15T11:40:18;8.45;;;7.75;;
24663;SDS011;12791;50.992;13.788;2023-05-15T11:42:59;7.95;;;7.25;;
24663;SDS011;12791;50.992;13.788;2023-05-15T11:45:30;7.40;;;6.72;;
24663;SDS011;12791;50.992;13.788;2023-05-15T11:47:59;6.70;;;6.10;;
24663;SDS011;12791;50.992;13.788;2023-05-15T11:50:28;7.13;;;6.47;;
24663;SDS011;12791;50.992;13.788;2023-05-15T11:52:56;6.43;;;5.95;;
24663;SDS011;12791;50.992;13.788;2023-05-15T11:55:23;8.15;;;7.45;;
24663;SDS011;12791;50.992;13.788;2023-05-15T11:57:50;8.55;;;6.78;;
24663;SDS011;12791;50.992;13.788;2023-05-15T12:00:17;8.02;;;7.32;;
24663;SDS011;12791;50.992;13.788;2023-05-15T12:02:44;7.70;;;7.10;;
24663;SDS011;12791;50.992;13.788;2023-05-15T12:05:10;8.52;;;7.70;;
24663;SDS011;12791;50.992;13.788;2023-05-15T12:07:39;9.82;;;7.90;;
24663;SDS011;12791;50.992;13.788;2023-05-15T12:10:08;6.90;;;6.40;;
24663;SDS011;12791;50.992;13.788;2023-05-15T12:12:37;7.65;;;6.95;;
24663;SDS011;12791;50.992;13.788;2023-05-15T12:15:05;7.90;;;7.20;;
24663;SDS011;12791;50.992;13.788;2023-05-15T12:17:35;7.22;;;6.57;;
24663;SDS011;12791;50.992;13.788;2023-05-15T12:20:02;7.18;;;6.57;;
24663;SDS011;12791;50.992;13.788;2023-05-15T12:22:34;10.23;;;8.32;;
24663;SDS011;12791;50.992;13.788;2023-05-15T12:25:03;9.20;;;8.40;;
24663;SDS011;12791;50.992;13.788;2023-05-15T12:27:31;10.73;;;9.52;;
24663;SDS011;12791;50.992;13.788;2023-05-15T12:29:58;10.70;;;9.77;;
24663;SDS011;12791;50.992;13.788;2023-05-15T12:32:26;10.40;;;9.55;;
24663;SDS011;12791;50.992;13.788;2023-05-15T12:34:53;9.30;;;8.35;;
24663;SDS011;12791;50.992;13.788;2023-05-15T12:37:19;10.43;;;9.43;;
24663;SDS011;12791;50.992;13.788;2023-05-15T12:39:52;9.25;;;8.35;;
24663;SDS011;12791;50.992;13.788;2023-05-15T12:42:21;9.65;;;8.95;;
24663;SDS011;12791;50.992;13.788;2023-05-15T12:44:51;10.20;;;9.25;;
24663;SDS011;12791;50.992;13.788;2023-05-15T12:47:23;10.68;;;9.80;;
24663;SDS011;12791;50.992;13.788;2023-05-15T12:49:53;10.25;;;9.45;;
24663;SDS011;12791;50.992;13.788;2023-05-15T12:52:21;10.25;;;9.45;;
24663;SDS011;12791;50.992;13.788;2023-05-15T12:54:47;10.68;;;9.68;;
24663;SDS011;12791;50.992;13.788;2023-05-15T12:57:15;10.75;;;9.80;;
24663;SDS011;12791;50.992;13.788;2023-05-15T12:59:43;9.55;;;8.85;;
24663;SDS011;12791;50.992;13.788;2023-05-15T13:02:10;10.05;;;9.25;;
24663;SDS011;12791;50.992;13.788;2023-05-15T13:04:37;10.32;;;9.32;;
24663;SDS011;12791;50.992;13.788;2023-05-15T13:07:04;10.05;;;9.13;;
24663;SDS011;12791;50.992;13.788;2023-05-15T13:09:31;9.77;;;9.00;;
24663;SDS011;12791;50.992;13.788;2023-05-15T13:12:00;9.25;;;8.55;;
24663;SDS011;12791;50.992;13.788;2023-05-15T13:14:27;11.43;;;10.43;;
24663;SDS011;12791;50.992;13.788;2023-05-15T13:16:59;10.25;;;9.20;;
24663;SDS011;12791;50.992;13.788;2023-05-15T13:19:27;9.27;;;8.48;;
24663;SDS011;12791;50.992;13.788;2023-05-15T13:21:54;10.30;;;9.38;;
24663;SDS011;12791;50.992;13.788;2023-05-15T13:24:20;9.35;;;8.65;;
24663;SDS011;12791;50.992;13.788;2023-05-15T13:26:47;9.35;;;8.63;;
24663;SDS011;12791;50.992;13.788;2023-05-15T13:29:14;9.18;;;7.95;;
24663;SDS011;12791;50.992;13.788;2023-05-15T13:31:40;9.00;;;8.13;;
24663;SDS011;12791;50.992;13.788;2023-05-15T13:34:09;9.75;;;8.75;;
24663;SDS011;12791;50.992;13.788;2023-05-15T13:36:35;10.27;;;8.32;;
24663;SDS011;12791;50.992;13.788;2023-05-15T13:39:02;10.13;;;9.10;;
24663;SDS011;12791;50.992;13.788;2023-05-15T13:41:30;9.75;;;8.95;;
24663;SDS011;12791;50.992;13.788;2023-05-15T13:43:57;10.00;;;9.10;;
24663;SDS011;12791;50.992;13.788;2023-05-15T13:46:23;9.73;;;8.95;;
24663;SDS011;12791;50.992;13.788;2023-05-15T13:48:50;8.50;;;7.70;;
24663;SDS011;12791;50.992;13.788;2023-05-15T13:51:18;7.95;;;7.25;;
24663;SDS011;12791;50.992;13.788;2023-05-15T13:53:44;6.30;;;5.85;;
24663;SDS011;12791;50.992;13.788;2023-05-15T13:56:11;8.25;;;7.63;;
24663;SDS011;12791;50.992;13.788;2023-05-15T13:58:38;8.52;;;7.72;;
24663;SDS011;12791;50.992;13.788;2023-05-15T14:01:05;7.88;;;7.18;;
24663;SDS011;12791;50.992;13.788;2023-05-15T14:03:32;7.53;;;6.93;;
24663;SDS011;12791;50.992;13.788;2023-05-15T14:05:58;6.15;;;5.68;;
24663;SDS011;12791;50.992;13.788;2023-05-15T14:08:26;7.13;;;6.63;;
24663;SDS011;12791;50.992;13.788;2023-05-15T14:10:53;7.68;;;7.13;;
24663;SDS011;12791;50.992;13.788;2023-05-15T14:13:20;7.75;;;6.82;;
24663;SDS011;12791;50.992;13.788;2023-05-15T14:15:47;7.13;;;6.57;;
24663;SDS011;12791;50.992;13.788;2023-05-15T14:18:14;6.75;;;6.25;;
24663;SDS011;12791;50.992;13.788;2023-05-15T14:20:40;7.03;;;6.43;;
24663;SDS011;12791;50.992;13.788;2023-05-15T14:23:07;6.55;;;5.95;;
24663;SDS011;12791;50.992;13.788;2023-05-15T14:25:35;7.95;;;7.28;;
24663;SDS011;12791;50.992;13.788;2023-05-15T14:28:01;7.72;;;7.03;;
24663;SDS011;12791;50.992;13.788;2023-05-15T14:30:28;7.05;;;6.53;;
24663;SDS011;12791;50.992;13.788;2023-05-15T14:32:55;7.88;;;7.13;;
24663;SDS011;12791;50.992;13.788;2023-05-15T14:35:21;8.25;;;7.55;;
24663;SDS011;12791;50.992;13.788;2023-05-15T14:37:48;7.53;;;6.78;;
24663;SDS011;12791;50.992;13.788;2023-05-15T14:40:14;6.82;;;6.32;;
24663;SDS011;12791;50.992;13.788;2023-05-15T14:42:43;7.07;;;6.47;;
24663;SDS011;12791;50.992;13.788;2023-05-15T14:45:09;7.53;;;6.93;;